Bangoka International Airport


Codes: FZIC/FKI
Name: Bangoka International Airport
City: Kisangani
Country: Congo [DRC]
Elevation: 1417 ft.
Wikipedia:

Photos at Bangoka International Airport


   Photos courtesy of SpottingLog. You can add your own sightings and photos by signing up for a free trial today.



No photos found.

Weather at Bangoka International Airport


Time (UTC)DescriptionTempratureWindCloud coverageVisibilityPressureHumidity
25-Jun-2024 21:00Clear Sky24°C2 mph, NE1%10000m1010hPa67%
26-Jun-2024 00:00Clear Sky23°C2 mph, NW2%10000m1010hPa69%
26-Jun-2024 03:00Clear Sky22°C2 mph, N4%10000m1009hPa74%
26-Jun-2024 06:00Scattered Clouds24°C0 mph, S29%10000m1012hPa69%
26-Jun-2024 09:00Scattered Clouds33°C2 mph, S43%10000m1011hPa38%
26-Jun-2024 12:00Few Clouds36°C2 mph, SW21%10000m1007hPa27%
26-Jun-2024 15:00Clear Sky34°C2 mph, S8%10000m1006hPa29%
26-Jun-2024 18:00Clear Sky26°C2 mph, SE4%10000m1008hPa45%
26-Jun-2024 21:00Clear Sky24°C0 mph, N4%10000m1010hPa57%
27-Jun-2024 00:00Few Clouds23°C2 mph, N21%10000m1008hPa59%
27-Jun-2024 03:00Broken Clouds23°C0 mph, NE78%10000m1009hPa63%
27-Jun-2024 06:00Overcast Clouds24°C2 mph, S89%10000m1012hPa63%
27-Jun-2024 09:00Overcast Clouds32°C2 mph, S87%10000m1011hPa35%
27-Jun-2024 12:00Broken Clouds36°C2 mph, S71%10000m1007hPa25%
27-Jun-2024 15:00Overcast Clouds34°C0 mph, SE99%10000m1006hPa30%
27-Jun-2024 18:00Overcast Clouds26°C2 mph, N97%10000m1009hPa56%
27-Jun-2024 21:00Overcast Clouds24°C4 mph, N98%10000m1010hPa68%
28-Jun-2024 00:00Overcast Clouds23°C2 mph, NW97%10000m1009hPa77%
28-Jun-2024 03:00Overcast Clouds24°C2 mph, NE94%10000m1010hPa74%
28-Jun-2024 06:00Overcast Clouds25°C2 mph, NE97%10000m1012hPa70%
28-Jun-2024 09:00Overcast Clouds30°C4 mph, NE100%10000m1011hPa50%
28-Jun-2024 12:00Overcast Clouds35°C2 mph, NE100%10000m1008hPa36%
28-Jun-2024 15:00Overcast Clouds31°C2 mph, NE100%10000m1007hPa49%
28-Jun-2024 18:00Overcast Clouds27°C2 mph, NE100%10000m1009hPa60%
28-Jun-2024 21:00Overcast Clouds25°C4 mph, N100%10000m1011hPa67%
29-Jun-2024 00:00Overcast Clouds23°C2 mph, N100%10000m1009hPa81%
29-Jun-2024 03:00Overcast Clouds23°C2 mph, N100%10000m1010hPa80%
29-Jun-2024 06:00Overcast Clouds26°C2 mph, NE98%10000m1012hPa69%
29-Jun-2024 09:00Overcast Clouds34°C2 mph, E100%10000m1011hPa40%
29-Jun-2024 12:00Overcast Clouds37°C2 mph, SW94%10000m1008hPa29%
29-Jun-2024 15:00Overcast Clouds34°C0 mph, NE100%10000m1007hPa35%
29-Jun-2024 18:00Light Rain24°C2 mph, W95%10000m1010hPa79%
29-Jun-2024 21:00Overcast Clouds23°C4 mph, N100%10000m1012hPa86%
30-Jun-2024 00:00Light Rain21°C2 mph, N100%10000m1010hPa94%
30-Jun-2024 03:00Overcast Clouds21°C2 mph, NE100%10000m1011hPa94%
30-Jun-2024 06:00Overcast Clouds24°C4 mph, NE99%10000m1013hPa80%
30-Jun-2024 09:00Overcast Clouds30°C2 mph, NE91%10000m1013hPa51%
30-Jun-2024 12:00Overcast Clouds35°C2 mph, NW90%10000m1009hPa35%
30-Jun-2024 15:00Overcast Clouds33°C2 mph, SE100%10000m1007hPa38%
30-Jun-2024 18:00Light Rain24°C0 mph, W97%10000m1010hPa82%